createdAt,value
2022-08-31T00:01:00.212Z,22.00
2022-08-31T00:03:41.234Z,21.80
2022-08-31T00:06:08.478Z,21.90
2022-08-31T00:08:34.201Z,21.80
2022-08-31T00:10:58.188Z,21.80
2022-08-31T00:13:22.271Z,21.60
2022-08-31T00:15:46.965Z,21.80
2022-08-31T00:18:10.950Z,21.70
2022-08-31T00:20:35.408Z,21.60
2022-08-31T00:22:59.035Z,21.50
2022-08-31T00:25:24.117Z,21.50
2022-08-31T00:27:48.197Z,21.40
2022-08-31T00:30:13.429Z,21.50
2022-08-31T00:32:37.225Z,21.50
2022-08-31T00:35:01.113Z,21.50
2022-08-31T00:37:24.814Z,21.40
2022-08-31T00:39:48.521Z,21.30
2022-08-31T00:42:14.616Z,21.30
2022-08-31T00:44:38.404Z,21.20
2022-08-31T00:47:02.062Z,21.10
2022-08-31T00:49:30.739Z,21.10
2022-08-31T00:51:58.493Z,21.00
2022-08-31T00:54:29.819Z,20.80
2022-08-31T00:56:54.588Z,21.00
2022-08-31T00:59:22.171Z,20.90
2022-08-31T01:01:46.383Z,20.80
2022-08-31T01:04:10.559Z,20.80
2022-08-31T01:06:34.845Z,20.70
2022-08-31T01:09:01.491Z,20.90
2022-08-31T01:11:25.637Z,20.90
2022-08-31T01:13:50.249Z,20.60
2022-08-31T01:16:23.118Z,20.60
2022-08-31T01:18:48.041Z,20.70
2022-08-31T01:21:27.110Z,20.90
2022-08-31T01:23:55.331Z,20.70
2022-08-31T01:26:24.220Z,20.80
2022-08-31T01:28:48.144Z,20.70
2022-08-31T01:31:21.402Z,20.60
2022-08-31T01:33:45.391Z,20.50
2022-08-31T01:36:14.256Z,20.40
2022-08-31T01:38:39.811Z,20.30
2022-08-31T01:41:06.774Z,20.20
2022-08-31T01:43:33.982Z,20.40
2022-08-31T01:45:57.964Z,20.40
2022-08-31T01:48:24.635Z,20.50
2022-08-31T01:50:48.957Z,20.30
2022-08-31T01:53:14.094Z,20.20
2022-08-31T01:55:38.861Z,20.20
2022-08-31T01:58:04.601Z,20.30
2022-08-31T02:00:32.032Z,20.20
2022-08-31T02:02:56.572Z,20.20
2022-08-31T02:05:21.217Z,20.10
2022-08-31T02:07:44.990Z,20.30
2022-08-31T02:10:09.875Z,20.20
2022-08-31T02:12:33.800Z,20.10
2022-08-31T02:14:59.053Z,20.30
2022-08-31T02:17:22.630Z,20.30
2022-08-31T02:19:46.596Z,20.30
2022-08-31T02:22:11.418Z,20.10
2022-08-31T02:24:35.261Z,20.20
2022-08-31T02:27:02.331Z,20.30
2022-08-31T02:29:26.209Z,20.30
2022-08-31T02:31:51.992Z,20.20
2022-08-31T02:34:17.192Z,20.20
2022-08-31T02:36:42.979Z,20.40
2022-08-31T02:39:07.035Z,20.20
2022-08-31T02:41:31.309Z,20.40
2022-08-31T02:43:54.956Z,20.20
2022-08-31T02:46:19.025Z,20.10
2022-08-31T02:49:07.581Z,20.30
2022-08-31T02:51:31.556Z,20.10
2022-08-31T02:53:55.582Z,20.20
2022-08-31T02:56:19.645Z,20.00
2022-08-31T02:58:43.779Z,20.00
2022-08-31T03:01:08.531Z,19.90
2022-08-31T03:03:33.467Z,19.90
2022-08-31T03:05:58.587Z,19.90
2022-08-31T03:08:23.658Z,20.00
2022-08-31T03:10:48.472Z,20.10
2022-08-31T03:13:12.505Z,20.00
2022-08-31T03:15:36.571Z,20.10
2022-08-31T03:18:01.830Z,19.90
2022-08-31T03:20:31.250Z,20.00
2022-08-31T03:22:59.575Z,19.90
2022-08-31T03:25:26.984Z,20.00
2022-08-31T03:27:51.064Z,20.00
2022-08-31T03:30:19.310Z,20.00
2022-08-31T03:32:52.975Z,19.90
2022-08-31T03:35:21.286Z,19.70
2022-08-31T03:37:46.605Z,19.70
2022-08-31T03:40:13.035Z,19.80
2022-08-31T03:42:37.275Z,19.80
2022-08-31T03:45:01.579Z,19.80
2022-08-31T03:47:28.543Z,19.90
2022-08-31T03:49:53.421Z,19.50
2022-08-31T03:52:21.883Z,19.60
2022-08-31T03:54:54.021Z,19.80
2022-08-31T03:57:20.372Z,20.00
2022-08-31T03:59:44.173Z,19.90
2022-08-31T04:02:16.807Z,19.90
2022-08-31T04:05:21.461Z,19.90
2022-08-31T04:08:04.548Z,19.80
2022-08-31T04:10:28.690Z,19.80
2022-08-31T04:13:12.569Z,19.70
2022-08-31T04:16:07.887Z,19.90
2022-08-31T04:19:07.984Z,19.50
2022-08-31T04:21:36.913Z,19.70
2022-08-31T04:24:02.961Z,19.60
2022-08-31T04:26:31.339Z,19.60
2022-08-31T04:29:01.317Z,19.60
2022-08-31T04:31:29.353Z,19.60
2022-08-31T04:33:57.441Z,19.80
2022-08-31T04:36:25.504Z,19.70
2022-08-31T04:38:55.467Z,19.60
2022-08-31T04:41:23.898Z,19.50
2022-08-31T04:43:53.675Z,19.40
2022-08-31T04:46:23.435Z,19.60
2022-08-31T04:48:49.436Z,19.60
2022-08-31T04:51:17.799Z,19.70
2022-08-31T04:53:45.286Z,19.40
2022-08-31T04:56:15.336Z,19.50
2022-08-31T04:58:40.853Z,19.30
2022-08-31T05:01:06.093Z,19.40
2022-08-31T05:03:53.371Z,19.30
2022-08-31T05:06:21.752Z,19.40
2022-08-31T05:08:47.302Z,19.30
2022-08-31T05:11:15.193Z,19.00
2022-08-31T05:13:40.253Z,19.10
2022-08-31T05:16:06.493Z,19.20
2022-08-31T05:18:32.825Z,19.10
2022-08-31T05:20:59.459Z,19.10
2022-08-31T05:23:25.426Z,19.00
2022-08-31T05:25:51.303Z,19.10
2022-08-31T05:28:17.339Z,19.10
2022-08-31T05:30:48.147Z,19.00
2022-08-31T05:33:33.079Z,19.00
2022-08-31T05:36:02.738Z,18.80
2022-08-31T05:38:29.337Z,18.90
2022-08-31T05:40:56.712Z,19.10
2022-08-31T05:43:21.281Z,18.90
2022-08-31T05:45:46.765Z,18.70
2022-08-31T05:48:13.184Z,18.80
2022-08-31T05:50:41.700Z,18.90
2022-08-31T05:53:08.061Z,19.00
2022-08-31T05:55:33.664Z,18.90
2022-08-31T05:57:58.512Z,18.80
2022-08-31T06:00:25.114Z,18.80
2022-08-31T06:02:59.081Z,18.70
2022-08-31T06:05:24.257Z,18.80
2022-08-31T06:07:51.020Z,18.80
2022-08-31T06:10:19.657Z,18.80
2022-08-31T06:12:45.053Z,18.70
2022-08-31T06:15:11.922Z,18.90
2022-08-31T06:17:36.630Z,18.80
2022-08-31T06:20:02.077Z,18.80
2022-08-31T06:22:29.662Z,18.90
2022-08-31T06:24:55.152Z,18.90
2022-08-31T06:27:23.334Z,18.80
2022-08-31T06:29:49.642Z,18.80
2022-08-31T06:32:14.347Z,18.80
2022-08-31T06:34:49.037Z,18.80
2022-08-31T06:37:53.444Z,18.80
2022-08-31T06:40:39.794Z,18.90
2022-08-31T06:43:30.996Z,19.10
2022-08-31T06:46:03.351Z,19.50
2022-08-31T06:48:51.171Z,19.10
2022-08-31T06:51:16.927Z,19.30
2022-08-31T06:53:44.200Z,19.30
2022-08-31T06:56:29.198Z,19.50
2022-08-31T06:59:14.982Z,19.50
2022-08-31T07:02:04.517Z,19.50
2022-08-31T07:04:33.912Z,19.50
2022-08-31T07:06:59.385Z,19.40
2022-08-31T07:09:25.297Z,19.60
2022-08-31T07:11:53.109Z,19.80
2022-08-31T07:14:23.626Z,19.90
2022-08-31T07:16:51.620Z,19.70
2022-08-31T07:19:19.503Z,20.00
2022-08-31T07:21:48.019Z,20.40
2022-08-31T07:24:16.884Z,20.40
2022-08-31T07:26:45.525Z,20.30
2022-08-31T07:29:15.168Z,20.30
2022-08-31T07:31:44.821Z,20.10
2022-08-31T07:34:11.458Z,20.40
2022-08-31T07:37:06.878Z,20.30
2022-08-31T07:39:51.920Z,20.50
2022-08-31T07:42:25.116Z,20.40
2022-08-31T07:44:53.792Z,20.20
2022-08-31T07:47:22.912Z,20.40
2022-08-31T07:49:51.467Z,20.40
2022-08-31T07:52:36.506Z,20.40
2022-08-31T07:55:09.729Z,20.60
2022-08-31T07:57:59.029Z,20.80
2022-08-31T08:00:27.118Z,20.70
2022-08-31T08:02:55.061Z,20.70
2022-08-31T08:05:35.515Z,20.80
2022-08-31T08:08:25.475Z,21.00
2022-08-31T08:11:02.523Z,21.10
2022-08-31T08:13:42.996Z,20.90
2022-08-31T08:16:35.199Z,20.70
2022-08-31T08:19:17.305Z,21.00
2022-08-31T08:21:47.095Z,21.00
2022-08-31T08:24:13.011Z,20.80
2022-08-31T08:26:38.797Z,20.90
2022-08-31T08:29:14.687Z,20.90
2022-08-31T08:31:43.086Z,21.20
2022-08-31T08:34:09.069Z,21.10
2022-08-31T08:36:37.511Z,21.30
2022-08-31T08:39:04.576Z,21.30
2022-08-31T08:41:31.126Z,21.40
2022-08-31T08:44:00.994Z,21.40
2022-08-31T08:46:35.523Z,21.00
2022-08-31T08:49:08.690Z,21.20
2022-08-31T08:51:41.028Z,21.50
2022-08-31T08:54:13.432Z,21.90
2022-08-31T08:56:42.581Z,21.50
2022-08-31T08:59:12.183Z,21.30
2022-08-31T09:01:39.072Z,21.30
2022-08-31T09:04:17.560Z,21.60
2022-08-31T09:07:35.002Z,21.60
2022-08-31T09:10:11.978Z,21.70
2022-08-31T09:12:52.407Z,21.70
2022-08-31T09:15:45.661Z,21.50
2022-08-31T09:18:33.238Z,21.40
2022-08-31T09:21:07.513Z,21.50
2022-08-31T09:23:50.496Z,21.60
2022-08-31T09:26:20.186Z,22.00
2022-08-31T09:28:58.276Z,22.00
2022-08-31T09:31:37.766Z,22.10
2022-08-31T09:34:05.254Z,22.10
2022-08-31T09:36:41.465Z,22.00
2022-08-31T09:39:33.136Z,22.20
2022-08-31T09:42:16.676Z,22.10
2022-08-31T09:44:44.943Z,22.20
2022-08-31T09:47:38.701Z,22.40
2022-08-31T09:50:04.940Z,22.30
2022-08-31T09:52:49.790Z,22.70
2022-08-31T09:55:25.628Z,22.50
2022-08-31T09:57:59.356Z,22.60
2022-08-31T10:00:36.854Z,22.70
2022-08-31T10:03:21.259Z,22.80
2022-08-31T10:05:46.520Z,22.60
2022-08-31T10:08:30.509Z,22.60
2022-08-31T10:10:58.730Z,22.60
2022-08-31T10:13:34.748Z,22.70
2022-08-31T10:16:05.739Z,23.00
2022-08-31T10:18:40.221Z,23.10
2022-08-31T10:21:11.782Z,23.40
2022-08-31T10:23:45.484Z,23.20
2022-08-31T10:26:20.650Z,23.30
2022-08-31T10:28:53.000Z,23.30
2022-08-31T10:31:24.673Z,23.40
2022-08-31T10:34:16.485Z,23.70
2022-08-31T10:36:44.864Z,23.80
2022-08-31T10:39:32.959Z,23.50
2022-08-31T10:42:05.834Z,23.60
2022-08-31T10:44:39.776Z,23.70
2022-08-31T10:47:06.749Z,23.90
2022-08-31T10:49:40.042Z,24.00
2022-08-31T10:52:14.653Z,23.90
2022-08-31T10:54:51.222Z,23.80
2022-08-31T10:57:40.885Z,23.90
2022-08-31T11:00:10.500Z,23.80
2022-08-31T11:02:59.805Z,24.40
2022-08-31T11:05:36.604Z,24.40
2022-08-31T11:08:25.788Z,24.80
2022-08-31T11:10:53.520Z,24.60
2022-08-31T11:13:48.640Z,24.50
2022-08-31T11:16:40.555Z,24.80
2022-08-31T11:19:38.499Z,24.50
2022-08-31T11:22:34.824Z,24.80
2022-08-31T11:25:27.501Z,24.40
2022-08-31T11:27:57.025Z,24.70
2022-08-31T11:30:26.812Z,24.80
2022-08-31T11:32:56.615Z,25.00
2022-08-31T11:36:05.660Z,25.10
2022-08-31T11:38:52.748Z,25.10
2022-08-31T11:41:39.471Z,24.90
2022-08-31T11:44:06.683Z,24.90
2022-08-31T11:47:08.590Z,24.80
2022-08-31T11:49:50.627Z,24.60
2022-08-31T11:52:43.425Z,24.90
2022-08-31T11:55:30.051Z,24.70
2022-08-31T11:58:34.915Z,24.50
2022-08-31T12:01:30.796Z,24.50
2022-08-31T12:04:04.148Z,24.70
2022-08-31T12:07:11.808Z,24.80
2022-08-31T12:10:30.451Z,24.90
2022-08-31T12:13:27.993Z,24.90
2022-08-31T12:16:52.448Z,25.10
2022-08-31T12:19:52.904Z,25.20
2022-08-31T12:23:10.418Z,24.90
2022-08-31T12:25:44.060Z,25.10
2022-08-31T12:28:18.531Z,25.30
2022-08-31T12:30:54.197Z,25.50
2022-08-31T12:33:21.420Z,25.20
2022-08-31T12:35:49.582Z,25.30
2022-08-31T12:38:22.222Z,25.50
2022-08-31T12:40:48.730Z,25.20
2022-08-31T12:43:18.553Z,25.60
2022-08-31T12:46:30.812Z,25.90
2022-08-31T12:49:28.171Z,26.00
2022-08-31T12:52:01.063Z,25.50
2022-08-31T12:55:12.683Z,25.60
2022-08-31T12:58:02.506Z,25.60
2022-08-31T13:00:29.154Z,25.50
2022-08-31T13:02:55.679Z,25.60
2022-08-31T13:05:22.682Z,25.40
2022-08-31T13:07:47.641Z,25.30
2022-08-31T13:10:15.332Z,25.50
2022-08-31T13:12:40.243Z,25.60
2022-08-31T13:15:04.722Z,26.00
2022-08-31T13:17:31.719Z,26.20
2022-08-31T13:20:00.735Z,25.70
2022-08-31T13:22:33.530Z,25.70
2022-08-31T13:25:16.465Z,25.50
2022-08-31T13:27:49.400Z,25.20
2022-08-31T13:30:19.698Z,25.30
2022-08-31T13:32:47.151Z,25.30
2022-08-31T13:35:15.377Z,25.50
2022-08-31T13:37:43.961Z,25.70
2022-08-31T13:40:14.212Z,25.80
2022-08-31T13:42:41.408Z,25.70
2022-08-31T13:45:09.217Z,25.60
2022-08-31T13:47:45.192Z,25.60
2022-08-31T13:50:24.585Z,25.60
2022-08-31T13:53:09.640Z,25.70
2022-08-31T13:55:40.053Z,25.30
2022-08-31T13:58:08.991Z,25.30
2022-08-31T14:00:41.558Z,25.50
2022-08-31T14:03:33.168Z,25.40
2022-08-31T14:05:58.974Z,25.20
2022-08-31T14:08:25.070Z,25.50
2022-08-31T14:10:55.870Z,25.50
2022-08-31T14:13:27.836Z,25.50
2022-08-31T14:15:56.503Z,25.60
2022-08-31T14:18:28.060Z,25.70
2022-08-31T14:21:23.688Z,25.70
2022-08-31T14:23:51.715Z,25.80
2022-08-31T14:26:17.864Z,26.00
2022-08-31T14:28:44.317Z,25.90
2022-08-31T14:31:33.919Z,26.00
2022-08-31T14:34:24.565Z,26.00
2022-08-31T14:36:55.408Z,25.70
2022-08-31T14:39:19.512Z,25.70
2022-08-31T14:41:43.942Z,25.80
2022-08-31T14:44:09.362Z,25.90
2022-08-31T14:46:33.190Z,25.70
2022-08-31T14:48:57.853Z,25.60
2022-08-31T14:51:22.508Z,25.30
2022-08-31T14:53:47.635Z,25.30
2022-08-31T14:56:21.302Z,25.50
2022-08-31T14:58:49.843Z,25.50
2022-08-31T15:01:13.904Z,25.50
2022-08-31T15:03:40.312Z,25.30
2022-08-31T15:06:05.171Z,25.50
2022-08-31T15:08:37.824Z,25.70
2022-08-31T15:11:05.347Z,25.80
2022-08-31T15:13:33.919Z,25.90
2022-08-31T15:15:57.485Z,25.60
2022-08-31T15:18:25.801Z,25.70
2022-08-31T15:20:49.549Z,25.80
2022-08-31T15:23:16.158Z,25.80
2022-08-31T15:25:39.777Z,25.70
2022-08-31T15:28:05.524Z,25.40
2022-08-31T15:30:30.018Z,25.40
2022-08-31T15:32:55.051Z,25.70
2022-08-31T15:35:23.570Z,25.70
2022-08-31T15:37:57.100Z,25.70
2022-08-31T15:40:21.604Z,25.60
2022-08-31T15:42:46.157Z,25.70
2022-08-31T15:45:12.340Z,25.80
2022-08-31T15:47:55.967Z,25.60
2022-08-31T15:50:23.415Z,25.70
2022-08-31T15:52:50.984Z,25.70
2022-08-31T15:55:17.592Z,25.80
2022-08-31T15:57:41.703Z,25.80
2022-08-31T16:00:07.827Z,25.90
2022-08-31T16:02:36.040Z,26.00
2022-08-31T16:04:59.673Z,26.00
2022-08-31T16:07:23.872Z,25.90
2022-08-31T16:09:47.417Z,25.90
2022-08-31T16:12:12.418Z,25.80
2022-08-31T16:14:38.345Z,25.80
2022-08-31T16:17:02.017Z,25.70
2022-08-31T16:19:35.173Z,25.80
2022-08-31T16:21:59.448Z,25.80
2022-08-31T16:24:25.151Z,25.80
2022-08-31T16:26:54.279Z,25.60
2022-08-31T16:29:22.280Z,25.40
2022-08-31T16:31:46.971Z,25.30
2022-08-31T16:34:11.294Z,25.30
2022-08-31T16:36:37.284Z,25.40
2022-08-31T16:39:02.107Z,25.50
2022-08-31T16:41:30.582Z,25.40
2022-08-31T16:44:18.094Z,25.30
2022-08-31T16:46:40.837Z,25.30
2022-08-31T16:49:22.880Z,25.40
2022-08-31T16:51:50.574Z,25.30
2022-08-31T16:54:14.404Z,25.20
2022-08-31T16:56:41.814Z,25.30
2022-08-31T16:59:15.365Z,25.30
2022-08-31T17:01:46.585Z,25.30
2022-08-31T17:04:24.619Z,25.30
2022-08-31T17:06:59.945Z,25.20
2022-08-31T17:09:26.140Z,25.00
2022-08-31T17:11:57.281Z,25.10
2022-08-31T17:14:27.128Z,25.10
2022-08-31T17:16:52.151Z,25.10
2022-08-31T17:19:19.784Z,25.10
2022-08-31T17:21:50.586Z,25.10
2022-08-31T17:24:16.092Z,25.10
2022-08-31T17:26:39.888Z,25.30
2022-08-31T17:29:06.918Z,25.10
2022-08-31T17:31:34.493Z,25.10
2022-08-31T17:33:58.852Z,25.10
2022-08-31T17:36:23.368Z,25.10
2022-08-31T17:38:48.693Z,25.00
2022-08-31T17:41:13.855Z,24.90
2022-08-31T17:43:39.572Z,24.80
2022-08-31T17:46:04.967Z,24.90
2022-08-31T17:48:28.612Z,24.80
2022-08-31T17:50:54.095Z,24.70
2022-08-31T17:53:17.734Z,24.70
2022-08-31T17:55:41.281Z,24.60
2022-08-31T17:58:06.694Z,24.60
2022-08-31T18:00:32.665Z,24.60
2022-08-31T18:02:56.575Z,24.50
2022-08-31T18:05:20.733Z,24.60
2022-08-31T18:07:46.022Z,24.40
2022-08-31T18:10:12.627Z,24.50
2022-08-31T18:12:41.247Z,24.40
2022-08-31T18:15:08.246Z,24.30
2022-08-31T18:17:31.931Z,24.40
2022-08-31T18:19:55.791Z,24.10
2022-08-31T18:22:19.922Z,24.20
2022-08-31T18:24:44.309Z,24.10
2022-08-31T18:27:10.618Z,24.00
2022-08-31T18:29:35.325Z,24.00
2022-08-31T18:32:04.293Z,24.00
2022-08-31T18:34:28.478Z,23.90
2022-08-31T18:36:55.404Z,24.00
2022-08-31T18:39:47.631Z,24.00
2022-08-31T18:42:26.493Z,24.00
2022-08-31T18:45:08.058Z,24.00
2022-08-31T18:47:33.037Z,23.80
2022-08-31T18:49:58.677Z,23.80
2022-08-31T18:52:22.770Z,23.80
2022-08-31T18:54:49.031Z,23.80
2022-08-31T18:57:12.634Z,23.80
2022-08-31T18:59:36.462Z,23.80
2022-08-31T19:02:00.409Z,23.70
2022-08-31T19:04:25.881Z,23.60
2022-08-31T19:06:49.467Z,23.60
2022-08-31T19:09:14.231Z,23.60
2022-08-31T19:11:46.724Z,23.60
2022-08-31T19:14:11.012Z,23.60
2022-08-31T19:16:34.726Z,23.70
2022-08-31T19:18:58.938Z,23.50
2022-08-31T19:21:27.492Z,23.40
2022-08-31T19:23:51.885Z,23.50
2022-08-31T19:26:26.888Z,23.40
2022-08-31T19:28:50.811Z,23.40
2022-08-31T19:31:15.485Z,23.50
2022-08-31T19:33:39.171Z,23.30
2022-08-31T19:36:04.863Z,23.30
2022-08-31T19:38:30.201Z,23.30
2022-08-31T19:40:53.815Z,23.20
2022-08-31T19:46:16.444Z,23.20
2022-08-31T19:48:47.186Z,23.20
2022-08-31T19:51:11.014Z,23.00
2022-08-31T19:53:36.155Z,23.00
2022-08-31T19:56:08.932Z,22.90
2022-08-31T19:58:32.573Z,23.10
2022-08-31T20:01:04.291Z,22.90
2022-08-31T20:03:28.338Z,22.90
2022-08-31T20:05:54.086Z,23.00
2022-08-31T20:08:17.831Z,22.90
2022-08-31T20:10:47.831Z,23.00
2022-08-31T20:13:12.693Z,23.00
2022-08-31T20:15:42.431Z,22.90
2022-08-31T20:18:07.615Z,22.80
2022-08-31T20:20:33.466Z,22.70
2022-08-31T20:22:57.261Z,22.80
2022-08-31T20:25:25.381Z,22.80
2022-08-31T20:27:50.690Z,22.80
2022-08-31T20:30:17.623Z,22.90
2022-08-31T20:32:41.385Z,22.70
2022-08-31T20:35:06.754Z,22.90
2022-08-31T20:37:30.329Z,22.70
2022-08-31T20:39:53.971Z,22.70
2022-08-31T20:42:17.653Z,22.80
2022-08-31T20:44:49.011Z,22.70
2022-08-31T20:47:30.002Z,22.70
2022-08-31T20:49:56.407Z,22.60
2022-08-31T20:52:19.888Z,22.50
2022-08-31T20:54:44.236Z,22.60
2022-08-31T20:57:10.230Z,22.70
2022-08-31T20:59:34.539Z,22.60
2022-08-31T21:02:04.168Z,22.60
2022-08-31T21:04:29.103Z,22.60
2022-08-31T21:06:53.310Z,22.60
2022-08-31T21:09:17.123Z,22.50
2022-08-31T21:11:43.640Z,22.50
2022-08-31T21:14:07.716Z,22.50
2022-08-31T21:16:33.062Z,22.30
2022-08-31T21:18:58.034Z,22.50
2022-08-31T21:21:21.569Z,22.50
2022-08-31T21:23:46.387Z,22.40
2022-08-31T21:26:10.108Z,22.30
2022-08-31T21:28:34.259Z,22.20
2022-08-31T21:31:15.377Z,22.30
2022-08-31T21:33:39.145Z,22.30
2022-08-31T21:36:07.675Z,22.20
2022-08-31T21:38:32.999Z,22.30
2022-08-31T21:40:56.546Z,22.30
2022-08-31T21:43:20.960Z,22.30
2022-08-31T21:45:44.577Z,22.00
2022-08-31T21:48:09.035Z,22.10
2022-08-31T21:50:32.556Z,22.00
2022-08-31T21:53:00.370Z,22.10
2022-08-31T21:55:24.310Z,22.10
2022-08-31T21:57:51.511Z,22.10
2022-08-31T22:00:29.032Z,22.00
2022-08-31T22:02:54.806Z,22.10
2022-08-31T22:05:18.468Z,22.00
2022-08-31T22:07:42.402Z,22.10
2022-08-31T22:10:10.102Z,22.00
2022-08-31T22:12:33.966Z,21.80
2022-08-31T22:14:59.001Z,21.80
2022-08-31T22:17:48.239Z,21.70
2022-08-31T22:20:17.742Z,21.70
2022-08-31T22:22:42.794Z,21.70
2022-08-31T22:25:12.671Z,21.50
2022-08-31T22:27:36.456Z,21.60
2022-08-31T22:30:00.638Z,21.70
2022-08-31T22:32:24.645Z,21.60
2022-08-31T22:34:48.263Z,21.50
2022-08-31T22:37:14.227Z,21.60
2022-08-31T22:39:38.764Z,21.60
2022-08-31T22:42:04.077Z,21.40
2022-08-31T22:44:32.352Z,21.60
2022-08-31T22:46:57.361Z,21.60
2022-08-31T22:49:21.115Z,21.40
2022-08-31T22:51:46.972Z,21.40
2022-08-31T22:54:11.496Z,21.30
2022-08-31T22:56:38.997Z,21.30
2022-08-31T22:59:08.031Z,21.30
2022-08-31T23:01:36.036Z,21.20
2022-08-31T23:04:05.252Z,21.40
2022-08-31T23:06:30.749Z,21.30
2022-08-31T23:08:57.219Z,21.10
2022-08-31T23:11:22.596Z,21.20
2022-08-31T23:13:56.612Z,21.30
2022-08-31T23:16:24.983Z,21.60
2022-08-31T23:18:49.250Z,21.50
2022-08-31T23:21:12.960Z,21.40
2022-08-31T23:23:37.215Z,21.50
2022-08-31T23:26:08.774Z,21.50
2022-08-31T23:28:32.464Z,21.50
2022-08-31T23:30:56.782Z,21.50
2022-08-31T23:33:22.519Z,21.80
2022-08-31T23:35:47.315Z,21.70
2022-08-31T23:38:10.928Z,21.30
2022-08-31T23:40:34.976Z,21.30
2022-08-31T23:42:58.672Z,21.30
2022-08-31T23:45:22.343Z,21.30
2022-08-31T23:47:47.459Z,21.10
2022-08-31T23:50:14.790Z,21.20
2022-08-31T23:52:41.577Z,21.10
2022-08-31T23:55:07.050Z,21.20
2022-08-31T23:57:32.790Z,21.30
